Terminal Aerodrome Forecast
Issued by NWS Twin Cities, MN

Home | Current Version | Previous Version | Text Only | Print | Product List | Glossary On
Versions: 1 2 3 4 5 6 7 8 9 10 11 12 13 14 15 16 17 18 19 20 21 22 23 24 25 26 27 28 29
000
FTUS43 KMPX 281415 AAB
TAFMSP
TAF AMD
KMSP 281415Z 2814/2918 18004KT 3SM BR OVC003
     FM281500 15007KT 4SM BR VCSH SCT008 OVC015
      TEMPO 2815/2816 2SM -SHRA BR OVC008
     FM281700 15010KT P6SM SCT035 BKN250
     FM290900 14006KT P6SM SCT025 BKN250
      TEMPO 2909/2913 4SM BR=

USA.gov is the U.S. government's official web portal to all federal, state and local government web resources and services.